createdAt,value
2017-11-17T00:01:01.189Z,45.42
2017-11-17T00:02:04.436Z,45.30
2017-11-17T00:03:07.186Z,44.92
2017-11-17T00:04:09.870Z,45.10
2017-11-17T00:05:12.538Z,43.35
2017-11-17T00:06:15.040Z,44.83
2017-11-17T00:07:18.469Z,42.47
2017-11-17T00:08:21.618Z,42.55
2017-11-17T00:09:25.867Z,40.55
2017-11-17T00:10:29.890Z,44.53
2017-11-17T00:11:32.557Z,40.92
2017-11-17T00:12:35.026Z,42.90
2017-11-17T00:13:38.796Z,43.38
2017-11-17T00:14:41.289Z,39.78
2017-11-17T00:15:43.785Z,40.47
2017-11-17T00:16:46.284Z,40.00
2017-11-17T00:17:48.769Z,40.92
2017-11-17T00:18:51.249Z,38.83
2017-11-17T00:19:53.898Z,41.15
2017-11-17T00:20:56.813Z,41.25
2017-11-17T00:22:00.074Z,40.70
2017-11-17T00:23:02.594Z,41.22
2017-11-17T00:24:05.201Z,40.22
2017-11-17T00:25:07.678Z,40.38
2017-11-17T00:26:10.237Z,41.03
2017-11-17T00:27:12.754Z,38.72
2017-11-17T00:28:15.563Z,39.13
2017-11-17T00:29:18.039Z,37.78
2017-11-17T00:30:20.518Z,39.05
2017-11-17T00:31:23.033Z,37.05
2017-11-17T00:32:26.841Z,37.40
2017-11-17T00:33:29.334Z,34.92
2017-11-17T00:34:33.393Z,33.00
2017-11-17T00:35:35.877Z,36.05
2017-11-17T00:36:45.522Z,35.85
2017-11-17T00:37:48.003Z,32.08
2017-11-17T00:38:50.532Z,32.15
2017-11-17T00:39:53.016Z,34.20
2017-11-17T00:40:55.584Z,32.80
2017-11-17T00:41:58.104Z,35.13
2017-11-17T00:43:00.921Z,30.95
2017-11-17T00:44:03.423Z,33.00
2017-11-17T00:45:06.773Z,32.83
2017-11-17T00:46:09.255Z,32.53
2017-11-17T00:47:11.924Z,32.80
2017-11-17T00:48:14.431Z,33.45
2017-11-17T00:49:17.241Z,34.17
2017-11-17T00:50:19.718Z,34.47
2017-11-17T00:51:22.185Z,33.72
2017-11-17T00:52:24.654Z,31.30
2017-11-17T00:53:28.238Z,31.55
2017-11-17T00:54:30.717Z,33.55
2017-11-17T00:55:34.166Z,31.75
2017-11-17T00:56:36.655Z,31.92
2017-11-17T00:57:39.137Z,34.03
2017-11-17T00:58:42.407Z,30.52
2017-11-17T00:59:45.156Z,32.20
2017-11-17T01:00:47.653Z,32.95
2017-11-17T01:01:50.135Z,31.52
2017-11-17T01:02:53.390Z,32.35
2017-11-17T01:03:56.146Z,31.17
2017-11-17T01:04:58.641Z,31.10
2017-11-17T01:06:01.136Z,32.05
2017-11-17T01:07:03.613Z,30.35
2017-11-17T01:08:06.820Z,30.75
2017-11-17T01:09:09.553Z,31.23
2017-11-17T01:10:12.148Z,27.90
2017-11-17T01:11:14.628Z,27.73
2017-11-17T01:12:17.104Z,28.80
2017-11-17T01:13:20.085Z,29.15
2017-11-17T01:14:22.858Z,28.48
2017-11-17T01:15:25.360Z,29.95
2017-11-17T01:16:28.178Z,26.67
2017-11-17T01:17:30.657Z,26.33
2017-11-17T01:18:33.129Z,24.77
2017-11-17T01:19:35.649Z,25.83
2017-11-17T01:20:38.552Z,23.80
2017-11-17T01:21:41.028Z,23.02
2017-11-17T01:22:43.501Z,23.12
2017-11-17T01:23:45.996Z,22.83
2017-11-17T01:24:48.623Z,22.23
2017-11-17T01:25:51.111Z,24.15
2017-11-17T01:26:54.549Z,24.05
2017-11-17T01:27:57.022Z,23.70
2017-11-17T01:28:59.490Z,21.95
2017-11-17T01:30:01.995Z,22.95
2017-11-17T01:31:05.555Z,24.58
2017-11-17T01:32:08.082Z,21.50
2017-11-17T01:33:10.912Z,22.35
2017-11-17T01:34:13.433Z,22.40
2017-11-17T01:35:16.267Z,22.30
2017-11-17T01:36:19.497Z,23.02
2017-11-17T01:37:22.170Z,23.50
2017-11-17T01:38:24.673Z,21.65
2017-11-17T01:39:27.389Z,22.35
2017-11-17T01:40:29.936Z,23.98
2017-11-17T01:41:32.538Z,22.52
2017-11-17T01:42:35.030Z,23.33
2017-11-17T01:43:38.517Z,24.27
2017-11-17T01:44:41.820Z,21.62
2017-11-17T01:45:45.357Z,23.17
2017-11-17T01:46:47.857Z,22.00
2017-11-17T01:47:50.324Z,21.27
2017-11-17T01:48:52.817Z,23.45
2017-11-17T01:49:55.417Z,21.05
2017-11-17T01:50:57.907Z,21.50
2017-11-17T01:52:00.393Z,21.60
2017-11-17T01:53:02.874Z,20.75
2017-11-17T01:54:06.424Z,19.45
2017-11-17T01:55:08.914Z,20.40
2017-11-17T01:56:11.394Z,20.42
2017-11-17T01:57:14.659Z,19.62
2017-11-17T01:58:17.585Z,20.48
2017-11-17T01:59:20.057Z,20.62
2017-11-17T02:00:22.823Z,18.42
2017-11-17T02:01:25.387Z,17.45
2017-11-17T02:02:28.099Z,18.23
2017-11-17T02:03:32.091Z,17.90
2017-11-17T02:04:34.577Z,16.62
2017-11-17T02:05:37.846Z,17.52
2017-11-17T02:06:42.142Z,19.05
2017-11-17T02:07:57.850Z,17.98
2017-11-17T02:09:01.089Z,18.10
2017-11-17T02:10:03.665Z,16.42
2017-11-17T02:11:06.195Z,17.00
2017-11-17T02:12:08.693Z,17.48
2017-11-17T02:13:11.199Z,16.10
2017-11-17T02:14:14.736Z,15.38
2017-11-17T02:15:17.242Z,14.77
2017-11-17T02:16:19.913Z,16.58
2017-11-17T02:17:22.408Z,13.15
2017-11-17T02:18:25.089Z,17.17
2017-11-17T02:19:27.595Z,17.37
2017-11-17T02:20:30.355Z,14.43
2017-11-17T02:21:32.862Z,15.13
2017-11-17T02:22:36.328Z,13.25
2017-11-17T02:23:39.642Z,13.52
2017-11-17T02:24:43.208Z,12.98
2017-11-17T02:25:45.684Z,12.75
2017-11-17T02:26:50.084Z,12.57
2017-11-17T02:27:52.630Z,14.00
2017-11-17T02:28:55.409Z,11.90
2017-11-17T02:29:58.199Z,14.32
2017-11-17T02:31:00.715Z,15.20
2017-11-17T02:32:03.197Z,12.52
2017-11-17T02:33:05.759Z,13.55
2017-11-17T02:34:08.266Z,11.15
2017-11-17T02:35:10.769Z,11.75
2017-11-17T02:36:13.261Z,13.52
2017-11-17T02:37:15.762Z,11.30
2017-11-17T02:38:19.064Z,10.55
2017-11-17T02:39:21.800Z,12.70
2017-11-17T02:40:24.288Z,10.95
2017-11-17T02:41:27.815Z,10.23
2017-11-17T02:42:30.329Z,11.55
2017-11-17T02:43:34.622Z,11.68
2017-11-17T02:44:42.521Z,12.30
2017-11-17T02:45:45.181Z,11.00
2017-11-17T02:46:47.721Z,11.98
2017-11-17T02:47:50.523Z,11.00
2017-11-17T02:48:53.023Z,11.02
2017-11-17T02:49:55.541Z,11.20
2017-11-17T02:50:58.033Z,9.82
2017-11-17T02:52:00.538Z,11.18
2017-11-17T02:53:03.005Z,11.40
2017-11-17T02:54:05.597Z,10.77
2017-11-17T02:55:08.093Z,10.60
2017-11-17T02:56:10.647Z,11.00
2017-11-17T02:57:13.203Z,10.82
2017-11-17T02:58:17.854Z,10.77
2017-11-17T02:59:21.112Z,9.70
2017-11-17T03:00:23.753Z,9.52
2017-11-17T03:01:26.401Z,10.85
2017-11-17T03:02:29.112Z,9.50
2017-11-17T03:03:31.604Z,10.13
2017-11-17T03:04:34.082Z,9.88
2017-11-17T03:05:37.536Z,10.20
2017-11-17T03:06:40.048Z,9.38
2017-11-17T03:07:42.514Z,9.32
2017-11-17T03:08:47.276Z,10.45
2017-11-17T03:09:49.753Z,9.48
2017-11-17T03:10:52.229Z,9.85
2017-11-17T03:11:54.718Z,11.10
2017-11-17T03:12:58.255Z,10.52
2017-11-17T03:14:00.754Z,10.27
2017-11-17T03:15:03.219Z,9.18
2017-11-17T03:16:06.489Z,9.93
2017-11-17T03:17:09.271Z,11.12
2017-11-17T03:18:11.763Z,10.80
2017-11-17T03:19:14.230Z,9.80
2017-11-17T03:20:16.813Z,11.38
2017-11-17T03:21:22.207Z,10.57
2017-11-17T03:22:24.742Z,10.48
2017-11-17T03:23:27.605Z,13.48
2017-11-17T03:24:30.117Z,10.90
2017-11-17T03:25:32.669Z,9.68
2017-11-17T03:26:35.158Z,10.60
2017-11-17T03:27:38.318Z,10.15
2017-11-17T03:28:40.792Z,11.60
2017-11-17T03:29:43.460Z,10.82
2017-11-17T03:30:45.934Z,11.30
2017-11-17T03:31:48.418Z,10.48
2017-11-17T03:32:51.689Z,10.52
2017-11-17T03:33:54.440Z,12.15
2017-11-17T03:35:00.325Z,10.75
2017-11-17T03:36:04.389Z,11.30
2017-11-17T03:37:06.874Z,12.68
2017-11-17T03:38:09.366Z,11.90
2017-11-17T03:39:12.678Z,10.98
2017-11-17T03:40:15.374Z,11.70
2017-11-17T03:41:17.860Z,11.88
2017-11-17T03:42:21.325Z,10.50
2017-11-17T03:43:23.803Z,10.48
2017-11-17T03:44:26.297Z,11.77
2017-11-17T03:45:29.578Z,12.80
2017-11-17T03:46:34.152Z,10.98
2017-11-17T03:47:36.628Z,11.90
2017-11-17T03:48:39.102Z,11.07
2017-11-17T03:49:41.593Z,11.60
2017-11-17T03:50:44.113Z,11.65
2017-11-17T03:51:46.624Z,13.02
2017-11-17T03:52:50.100Z,12.52
2017-11-17T03:53:53.358Z,12.02
2017-11-17T03:54:56.033Z,13.02
2017-11-17T03:55:58.527Z,12.85
2017-11-17T03:57:02.075Z,12.75
2017-11-17T03:58:04.552Z,11.90
2017-11-17T03:59:08.939Z,11.75
2017-11-17T04:00:11.440Z,13.32
2017-11-17T04:01:15.049Z,13.82
2017-11-17T04:02:18.314Z,13.18
2017-11-17T04:03:21.669Z,13.27
2017-11-17T04:04:24.167Z,15.70
2017-11-17T04:05:28.299Z,13.75
2017-11-17T04:06:30.774Z,14.57
2017-11-17T04:07:33.372Z,14.87
2017-11-17T04:08:35.841Z,14.50
2017-11-17T04:09:38.322Z,13.75
2017-11-17T04:10:41.585Z,15.05
2017-11-17T04:11:44.351Z,15.05
2017-11-17T04:12:46.920Z,17.08
2017-11-17T04:13:49.687Z,16.48
2017-11-17T04:14:52.160Z,15.88
2017-11-17T04:15:54.650Z,15.48
2017-11-17T04:16:57.116Z,15.32
2017-11-17T04:18:00.665Z,17.52
2017-11-17T04:19:03.161Z,14.48
2017-11-17T04:20:05.650Z,18.37
2017-11-17T04:21:08.915Z,17.15
2017-11-17T04:22:12.183Z,18.33
2017-11-17T04:23:14.656Z,16.02
2017-11-17T04:24:17.381Z,29.55
2017-11-17T04:25:19.872Z,20.90
2017-11-17T04:26:22.663Z,18.75
2017-11-17T04:27:25.175Z,16.60
2017-11-17T04:28:27.985Z,15.65
2017-11-17T04:29:30.532Z,17.75
2017-11-17T04:30:33.320Z,17.00
2017-11-17T04:31:36.913Z,18.73
2017-11-17T04:32:39.874Z,17.02
2017-11-17T04:33:42.373Z,15.68
2017-11-17T04:34:46.445Z,16.50
2017-11-17T04:35:48.941Z,16.05
2017-11-17T04:36:51.425Z,16.62
2017-11-17T04:37:54.688Z,16.65
2017-11-17T04:38:57.441Z,18.15
2017-11-17T04:39:59.924Z,20.73
2017-11-17T04:41:02.409Z,19.52
2017-11-17T04:42:05.744Z,16.55
2017-11-17T04:43:08.289Z,19.25
2017-11-17T04:44:10.775Z,18.60
2017-11-17T04:45:13.285Z,17.33
2017-11-17T04:46:16.737Z,18.55
2017-11-17T04:47:19.214Z,18.35
2017-11-17T04:48:21.739Z,17.98
2017-11-17T04:49:24.208Z,18.00
2017-11-17T04:50:26.827Z,17.20
2017-11-17T04:51:29.590Z,19.30
2017-11-17T04:52:32.101Z,18.95
2017-11-17T04:53:35.372Z,18.00
2017-11-17T04:54:38.721Z,19.00
2017-11-17T04:55:41.189Z,18.35
2017-11-17T04:56:43.669Z,20.65
2017-11-17T04:57:46.144Z,18.25
2017-11-17T04:58:49.945Z,17.12
2017-11-17T04:59:53.191Z,20.50
2017-11-17T05:00:55.967Z,19.90
2017-11-17T05:01:59.984Z,19.00
2017-11-17T05:03:02.448Z,21.80
2017-11-17T05:04:05.771Z,18.25
2017-11-17T05:05:08.531Z,19.27
2017-11-17T05:06:11.787Z,19.92
2017-11-17T05:07:14.422Z,20.37
2017-11-17T05:08:16.975Z,21.37
2017-11-17T05:09:19.802Z,22.13
2017-11-17T05:10:23.090Z,19.95
2017-11-17T05:11:25.730Z,20.75
2017-11-17T05:12:28.193Z,22.15
2017-11-17T05:13:30.880Z,20.98
2017-11-17T05:14:33.362Z,21.02
2017-11-17T05:15:36.702Z,19.30
2017-11-17T05:16:39.180Z,23.17
2017-11-17T05:17:41.688Z,20.05
2017-11-17T05:18:44.933Z,22.90
2017-11-17T05:19:47.749Z,29.37
2017-11-17T05:20:50.226Z,22.98
2017-11-17T05:21:53.027Z,21.45
2017-11-17T05:22:55.525Z,21.67
2017-11-17T05:23:57.989Z,21.30
2017-11-17T05:25:00.461Z,21.42
2017-11-17T05:26:03.962Z,20.27
2017-11-17T05:27:07.210Z,22.08
2017-11-17T05:28:09.994Z,22.48
2017-11-17T05:29:12.502Z,19.17
2017-11-17T05:30:15.004Z,22.15
2017-11-17T05:31:17.511Z,22.00
2017-11-17T05:32:20.962Z,20.45
2017-11-17T05:33:23.449Z,19.20
2017-11-17T05:34:26.903Z,20.25
2017-11-17T05:35:29.399Z,21.15
2017-11-17T05:36:31.909Z,22.52
2017-11-17T05:37:34.409Z,21.92
2017-11-17T05:38:36.981Z,22.40
2017-11-17T05:39:39.457Z,25.17
2017-11-17T05:40:41.984Z,23.85
2017-11-17T05:41:44.491Z,23.90
2017-11-17T05:42:47.021Z,23.87
2017-11-17T05:43:49.495Z,21.87
2017-11-17T05:44:52.062Z,21.40
2017-11-17T05:45:54.540Z,21.27
2017-11-17T05:46:57.028Z,23.77
2017-11-17T05:47:59.545Z,20.85
2017-11-17T05:49:02.149Z,20.33
2017-11-17T05:50:04.621Z,22.15
2017-11-17T05:51:07.108Z,23.27
2017-11-17T05:52:10.358Z,21.12
2017-11-17T05:53:14.671Z,23.20
2017-11-17T05:54:17.162Z,21.58
2017-11-17T05:55:20.609Z,20.05
2017-11-17T05:56:23.074Z,20.10
2017-11-17T05:57:25.708Z,20.70
2017-11-17T05:58:28.194Z,21.35
2017-11-17T05:59:31.866Z,25.80
2017-11-17T06:00:34.344Z,23.38
2017-11-17T06:01:36.938Z,24.75
2017-11-17T06:02:39.449Z,22.35
2017-11-17T06:03:41.943Z,22.48
2017-11-17T06:04:44.419Z,22.17
2017-11-17T06:05:46.991Z,23.40
2017-11-17T06:06:49.465Z,23.30
2017-11-17T06:07:51.940Z,22.55
2017-11-17T06:08:54.428Z,27.83
2017-11-17T06:09:57.986Z,24.63
2017-11-17T06:11:00.460Z,24.77
2017-11-17T06:12:02.942Z,25.45
2017-11-17T06:13:06.222Z,25.40
2017-11-17T06:14:09.573Z,27.02
2017-11-17T06:15:12.062Z,24.40
2017-11-17T06:16:14.556Z,25.50
2017-11-17T06:17:17.797Z,25.27
2017-11-17T06:18:20.583Z,24.37
2017-11-17T06:19:23.841Z,25.60
2017-11-17T06:20:26.442Z,24.77
2017-11-17T06:21:29.680Z,25.23
2017-11-17T06:22:32.455Z,23.35
2017-11-17T06:23:34.934Z,22.40
2017-11-17T06:24:37.482Z,23.87
2017-11-17T06:25:39.967Z,25.62
2017-11-17T06:26:42.563Z,23.85
2017-11-17T06:27:45.822Z,24.20
2017-11-17T06:28:48.500Z,23.67
2017-11-17T06:29:50.977Z,23.90
2017-11-17T06:30:54.460Z,23.90
2017-11-17T06:31:56.948Z,24.12
2017-11-17T06:33:00.396Z,25.52
2017-11-17T06:34:02.866Z,27.00
2017-11-17T06:35:05.427Z,24.52
2017-11-17T06:36:07.928Z,25.42
2017-11-17T06:37:11.369Z,24.40
2017-11-17T06:38:13.926Z,24.75
2017-11-17T06:39:16.747Z,25.02
2017-11-17T06:40:19.229Z,25.73
2017-11-17T06:41:22.695Z,26.50
2017-11-17T06:42:25.192Z,27.13
2017-11-17T06:43:28.916Z,27.42
2017-11-17T06:44:31.441Z,27.25
2017-11-17T06:45:34.910Z,27.67
2017-11-17T06:46:38.185Z,25.75
2017-11-17T06:47:40.864Z,27.70
2017-11-17T06:48:43.345Z,25.92
2017-11-17T06:49:46.790Z,26.95
2017-11-17T06:50:49.315Z,29.20
2017-11-17T06:51:51.802Z,26.05
2017-11-17T06:52:54.321Z,28.40
2017-11-17T06:53:57.805Z,24.27
2017-11-17T06:55:01.500Z,24.77
2017-11-17T06:56:04.945Z,24.52
2017-11-17T06:57:07.451Z,28.50
2017-11-17T06:58:13.875Z,28.80
2017-11-17T06:59:16.426Z,26.10
2017-11-17T07:00:19.088Z,24.98
2017-11-17T07:01:25.488Z,25.27
2017-11-17T07:02:29.581Z,25.50
2017-11-17T07:03:32.101Z,27.17
2017-11-17T07:04:34.586Z,25.62
2017-11-17T07:05:37.138Z,28.17
2017-11-17T07:06:39.932Z,26.87
2017-11-17T07:07:42.504Z,29.27
2017-11-17T07:08:45.294Z,28.30
2017-11-17T07:09:48.533Z,29.80
2017-11-17T07:10:51.216Z,27.42
2017-11-17T07:11:53.704Z,27.27
2017-11-17T07:12:56.257Z,25.80
2017-11-17T07:13:58.781Z,27.87
2017-11-17T07:15:01.252Z,26.10
2017-11-17T07:16:03.992Z,28.33
2017-11-17T07:17:06.593Z,26.52
2017-11-17T07:18:09.294Z,29.00
2017-11-17T07:19:11.782Z,28.90
2017-11-17T07:20:14.362Z,26.52
2017-11-17T07:21:16.867Z,27.37
2017-11-17T07:22:19.356Z,28.87
2017-11-17T07:23:21.855Z,26.60
2017-11-17T07:24:24.406Z,28.98
2017-11-17T07:25:26.908Z,28.73
2017-11-17T07:26:30.349Z,26.37
2017-11-17T07:27:32.830Z,26.33
2017-11-17T07:28:36.914Z,23.87
2017-11-17T07:29:39.407Z,28.58
2017-11-17T07:30:41.925Z,27.48
2017-11-17T07:31:44.613Z,30.42
2017-11-17T07:32:47.087Z,26.98
2017-11-17T07:33:50.919Z,28.23
2017-11-17T07:34:54.194Z,24.33
2017-11-17T07:35:56.853Z,27.77
2017-11-17T07:36:59.356Z,28.77
2017-11-17T07:38:01.863Z,28.48
2017-11-17T07:39:04.357Z,26.48
2017-11-17T07:40:06.942Z,25.10
2017-11-17T07:41:10.208Z,29.12
2017-11-17T07:42:14.114Z,27.15
2017-11-17T07:43:17.424Z,27.37
2017-11-17T07:44:20.098Z,27.85
2017-11-17T07:45:22.584Z,27.25
2017-11-17T07:46:25.079Z,26.95
2017-11-17T07:47:28.361Z,26.85
2017-11-17T07:48:31.015Z,26.75
2017-11-17T07:49:33.509Z,28.73
2017-11-17T07:50:38.783Z,28.25
2017-11-17T07:51:50.912Z,27.85
2017-11-17T07:52:53.532Z,27.75
2017-11-17T07:53:56.362Z,28.40
2017-11-17T07:54:59.353Z,28.85
2017-11-17T07:56:02.017Z,30.55
2017-11-17T07:57:05.266Z,26.98
2017-11-17T07:58:07.972Z,30.90
2017-11-17T07:59:10.465Z,31.42
2017-11-17T08:00:12.961Z,31.50
2017-11-17T08:01:15.963Z,31.70
2017-11-17T08:02:19.546Z,32.58
2017-11-17T08:03:23.836Z,31.20
2017-11-17T08:04:26.325Z,29.05
2017-11-17T08:05:30.311Z,29.10
2017-11-17T08:06:33.030Z,30.45
2017-11-17T08:07:41.455Z,27.92
2017-11-17T08:08:44.165Z,27.75
2017-11-17T08:09:50.716Z,27.75
2017-11-17T08:10:53.510Z,27.20
2017-11-17T08:11:57.137Z,25.67
2017-11-17T08:12:59.738Z,27.85
2017-11-17T08:14:02.242Z,27.77
2017-11-17T08:15:04.820Z,24.52
2017-11-17T08:16:07.357Z,25.80
2017-11-17T08:17:21.975Z,27.33
2017-11-17T08:20:09.446Z,24.65
2017-11-17T08:21:12.216Z,24.92
2017-11-17T08:22:14.792Z,27.55
2017-11-17T08:23:17.718Z,25.62
2017-11-17T08:24:20.213Z,27.10
2017-11-17T08:25:23.097Z,25.27
2017-11-17T08:26:25.593Z,26.25
2017-11-17T08:27:28.410Z,25.48
2017-11-17T08:28:30.896Z,26.23
2017-11-17T08:29:33.378Z,25.25
2017-11-17T08:30:44.115Z,25.15
2017-11-17T08:31:47.053Z,26.98
2017-11-17T08:32:49.622Z,25.42
2017-11-17T08:33:52.733Z,24.60
2017-11-17T08:34:56.566Z,24.70
2017-11-17T08:36:00.036Z,23.08
2017-11-17T08:37:02.543Z,23.33
2017-11-17T08:38:05.232Z,22.20
2017-11-17T08:39:07.852Z,22.08
2017-11-17T08:40:11.850Z,23.27
2017-11-17T08:41:14.669Z,21.65
2017-11-17T08:42:17.333Z,22.73
2017-11-17T08:43:19.827Z,20.12
2017-11-17T08:44:22.607Z,22.08
2017-11-17T08:45:25.101Z,19.10
2017-11-17T08:46:28.658Z,19.17
2017-11-17T08:47:31.195Z,20.08
2017-11-17T08:48:41.740Z,21.48
2017-11-17T08:49:44.250Z,18.65
2017-11-17T08:50:46.791Z,18.20
2017-11-17T08:51:49.323Z,17.87
2017-11-17T08:52:52.574Z,15.27
2017-11-17T08:53:55.428Z,15.75
2017-11-17T08:54:57.966Z,16.00
2017-11-17T08:56:00.647Z,15.38
2017-11-17T08:57:03.160Z,15.93
2017-11-17T08:58:06.624Z,13.65
2017-11-17T08:59:10.656Z,12.35
2017-11-17T09:00:14.044Z,9.43
2017-11-17T09:01:17.480Z,10.02
2017-11-17T09:02:20.344Z,8.98
2017-11-17T09:03:22.844Z,8.73
2017-11-17T09:04:25.596Z,7.70
2017-11-17T09:05:28.165Z,7.37
2017-11-17T09:06:30.976Z,8.57
2017-11-17T09:07:34.250Z,7.00
2017-11-17T09:08:38.438Z,6.87
2017-11-17T09:09:40.917Z,6.85
2017-11-17T09:10:43.457Z,7.45
2017-11-17T09:11:46.085Z,6.18
2017-11-17T09:12:49.443Z,5.68
2017-11-17T09:13:51.968Z,5.80
2017-11-17T09:14:54.514Z,4.75
2017-11-17T09:15:57.184Z,5.55
2017-11-17T09:17:00.195Z,5.50
2017-11-17T09:18:02.678Z,4.97
2017-11-17T09:19:05.701Z,5.05
2017-11-17T09:20:08.200Z,5.30
2017-11-17T09:21:10.769Z,4.00
2017-11-17T09:22:13.318Z,5.95
2017-11-17T09:23:15.849Z,5.37
2017-11-17T09:24:19.125Z,5.70
2017-11-17T09:25:22.399Z,5.00
2017-11-17T09:26:24.951Z,4.65
2017-11-17T09:27:27.694Z,4.80
2017-11-17T09:28:30.264Z,5.30
2017-11-17T09:29:32.758Z,4.97
2017-11-17T09:30:35.288Z,5.15
2017-11-17T09:31:38.354Z,4.57
2017-11-17T09:32:40.860Z,5.15
2017-11-17T09:33:43.430Z,4.60
2017-11-17T09:34:45.920Z,5.22
2017-11-17T09:35:49.371Z,4.93
2017-11-17T09:36:51.875Z,4.90
2017-11-17T09:37:55.607Z,4.40
2017-11-17T09:38:58.339Z,5.05
2017-11-17T09:40:01.595Z,4.60
2017-11-17T09:41:04.273Z,4.25
2017-11-17T09:42:06.791Z,4.87
2017-11-17T09:43:09.274Z,4.45
2017-11-17T09:44:11.782Z,4.65
2017-11-17T09:45:14.349Z,4.97
2017-11-17T09:46:16.888Z,4.90
2017-11-17T09:47:19.653Z,4.90
2017-11-17T09:48:22.155Z,4.20
2017-11-17T09:49:25.762Z,5.15
2017-11-17T09:50:29.005Z,4.65
2017-11-17T09:51:31.594Z,4.75
2017-11-17T09:52:34.880Z,5.35
2017-11-17T09:53:38.609Z,4.22
2017-11-17T09:54:41.098Z,4.15
2017-11-17T09:55:43.778Z,4.82
2017-11-17T09:56:46.242Z,4.82
2017-11-17T09:57:49.150Z,4.95
2017-11-17T09:58:52.411Z,3.75
2017-11-17T09:59:55.089Z,3.75
2017-11-17T10:00:57.560Z,4.10
2017-11-17T10:02:00.102Z,4.57
2017-11-17T10:03:02.626Z,3.47
2017-11-17T10:04:05.127Z,3.60
2017-11-17T10:05:07.624Z,4.90
2017-11-17T10:06:10.149Z,4.40
2017-11-17T10:07:12.636Z,4.07
2017-11-17T10:08:15.231Z,4.45
2017-11-17T10:09:18.511Z,4.32
2017-11-17T10:10:22.337Z,4.43
2017-11-17T10:11:24.836Z,3.25
2017-11-17T10:12:27.412Z,3.78
2017-11-17T10:13:29.963Z,3.75
2017-11-17T10:14:32.437Z,4.95
2017-11-17T10:15:34.938Z,4.10
2017-11-17T10:16:39.111Z,3.75
2017-11-17T10:17:42.505Z,3.95
2017-11-17T10:18:45.291Z,3.00
2017-11-17T10:19:47.762Z,3.80
2017-11-17T10:20:50.482Z,3.12
2017-11-17T10:21:53.001Z,3.62
2017-11-17T10:22:56.315Z,3.47
2017-11-17T10:23:58.803Z,3.53
2017-11-17T10:25:01.310Z,3.67
2017-11-17T10:26:05.346Z,3.72
2017-11-17T10:27:13.243Z,4.03
2017-11-17T10:28:15.761Z,4.20
2017-11-17T10:29:18.480Z,3.20
2017-11-17T10:30:20.955Z,3.45
2017-11-17T10:31:27.468Z,3.70
2017-11-17T10:32:30.748Z,2.90
2017-11-17T10:33:34.185Z,3.00
2017-11-17T10:34:36.767Z,3.60
2017-11-17T10:35:39.515Z,3.60
2017-11-17T10:36:42.039Z,3.65
2017-11-17T10:37:45.304Z,5.20
2017-11-17T10:38:47.790Z,3.53
2017-11-17T10:39:51.296Z,3.10
2017-11-17T10:40:54.544Z,3.60
2017-11-17T10:41:57.236Z,3.75
2017-11-17T10:42:59.714Z,3.20
2017-11-17T10:44:03.231Z,4.22
2017-11-17T10:45:05.838Z,2.60
2017-11-17T10:46:08.469Z,2.83
2017-11-17T10:47:11.035Z,3.25
2017-11-17T10:48:13.554Z,3.65
2017-11-17T10:49:16.055Z,3.45
2017-11-17T10:50:18.879Z,2.78
2017-11-17T10:51:21.350Z,3.05
2017-11-17T10:52:25.147Z,3.60
2017-11-17T10:53:28.392Z,3.00
2017-11-17T10:54:31.124Z,3.55
2017-11-17T10:55:34.392Z,3.25
2017-11-17T10:56:37.075Z,2.65
2017-11-17T10:57:40.397Z,3.15
2017-11-17T10:58:42.990Z,3.12
2017-11-17T10:59:45.502Z,3.87
2017-11-17T11:00:49.647Z,3.25
2017-11-17T11:01:52.144Z,2.55
2017-11-17T11:02:54.914Z,3.28
2017-11-17T11:03:57.425Z,2.55
2017-11-17T11:04:59.914Z,3.90
2017-11-17T11:06:02.421Z,3.12
2017-11-17T11:07:04.971Z,2.90
2017-11-17T11:08:07.453Z,2.47
2017-11-17T11:09:10.968Z,2.87
2017-11-17T11:10:13.487Z,2.70
2017-11-17T11:11:21.884Z,2.62
2017-11-17T11:12:24.394Z,3.00
2017-11-17T11:13:27.153Z,3.42
2017-11-17T11:14:30.436Z,2.60
2017-11-17T11:15:33.677Z,2.25
2017-11-17T11:16:36.221Z,2.70
2017-11-17T11:17:39.129Z,3.35
2017-11-17T11:18:41.641Z,3.00
2017-11-17T11:19:44.355Z,2.90
2017-11-17T11:20:46.865Z,2.58
2017-11-17T11:21:50.314Z,3.08
2017-11-17T11:22:52.805Z,2.35
2017-11-17T11:23:55.356Z,2.40
2017-11-17T11:24:57.881Z,3.03
2017-11-17T11:26:00.360Z,3.25
2017-11-17T11:27:02.827Z,2.87
2017-11-17T11:28:05.417Z,2.40
2017-11-17T11:29:07.894Z,2.60
2017-11-17T11:30:10.476Z,2.53
2017-11-17T11:31:13.757Z,2.25
2017-11-17T11:32:17.053Z,2.15
2017-11-17T11:33:20.689Z,2.40
2017-11-17T11:34:23.270Z,2.85
2017-11-17T11:35:25.772Z,2.60
2017-11-17T11:36:29.209Z,2.12
2017-11-17T11:37:31.687Z,2.70
2017-11-17T11:38:34.249Z,2.25
2017-11-17T11:39:36.766Z,2.87
2017-11-17T11:40:40.209Z,2.92
2017-11-17T11:41:42.709Z,2.60
2017-11-17T11:42:46.985Z,3.60
2017-11-17T11:43:49.500Z,2.03
2017-11-17T11:44:52.114Z,2.00
2017-11-17T11:45:54.572Z,1.90
2017-11-17T11:46:57.162Z,2.55
2017-11-17T11:47:59.661Z,2.65
2017-11-17T11:49:03.181Z,2.60
2017-11-17T11:50:05.657Z,3.25
2017-11-17T11:51:09.410Z,2.50
2017-11-17T11:52:13.052Z,2.40
2017-11-17T11:53:15.652Z,2.90
2017-11-17T11:54:18.916Z,2.50
2017-11-17T11:55:21.578Z,2.90
2017-11-17T11:56:24.110Z,2.35
2017-11-17T11:57:27.293Z,2.25
2017-11-17T11:58:29.786Z,2.37
2017-11-17T11:59:32.295Z,1.90
2017-11-17T12:00:35.554Z,2.37
2017-11-17T12:01:38.844Z,2.20
2017-11-17T12:02:41.361Z,2.22
2017-11-17T12:03:45.098Z,2.85
2017-11-17T12:04:47.591Z,2.97
2017-11-17T12:05:51.024Z,2.12
2017-11-17T12:06:53.570Z,2.60
2017-11-17T12:07:56.593Z,2.60
2017-11-17T12:08:59.079Z,2.10
2017-11-17T12:10:02.363Z,2.22
2017-11-17T12:11:05.609Z,2.75
2017-11-17T12:12:08.293Z,2.70
2017-11-17T12:13:10.820Z,2.83
2017-11-17T12:14:13.327Z,1.90
2017-11-17T12:15:15.837Z,2.22
2017-11-17T12:16:18.396Z,3.20
2017-11-17T12:17:20.886Z,3.12
2017-11-17T12:18:24.617Z,2.20
2017-11-17T12:19:27.126Z,2.20
2017-11-17T12:20:29.628Z,2.17
2017-11-17T12:21:32.192Z,2.28
2017-11-17T12:22:34.690Z,2.30
2017-11-17T12:23:38.022Z,2.87
2017-11-17T12:24:40.750Z,2.10
2017-11-17T12:25:44.036Z,2.80
2017-11-17T12:26:47.483Z,2.60
2017-11-17T12:27:50.033Z,3.00
2017-11-17T12:28:52.518Z,2.30
2017-11-17T12:29:55.049Z,3.12
2017-11-17T12:30:57.565Z,4.00
2017-11-17T12:32:00.087Z,2.55
2017-11-17T12:33:02.589Z,2.67
2017-11-17T12:34:05.079Z,2.20
2017-11-17T12:35:08.523Z,2.25
2017-11-17T12:36:11.073Z,2.35
2017-11-17T12:37:13.578Z,2.35
2017-11-17T12:38:16.114Z,2.60
2017-11-17T12:39:18.601Z,2.65
2017-11-17T12:40:21.089Z,2.22
2017-11-17T12:41:23.648Z,2.20
2017-11-17T12:42:26.922Z,2.75
2017-11-17T12:43:29.586Z,2.10
2017-11-17T12:44:32.141Z,2.72
2017-11-17T12:45:34.616Z,1.92
2017-11-17T12:46:37.140Z,2.25
2017-11-17T12:47:39.669Z,2.37
2017-11-17T12:48:42.176Z,2.05
2017-11-17T12:49:44.858Z,1.80
2017-11-17T12:50:47.425Z,2.20
2017-11-17T12:51:50.060Z,2.50
2017-11-17T12:52:53.315Z,1.70
2017-11-17T12:53:55.960Z,2.85
2017-11-17T12:54:58.460Z,2.05
2017-11-17T12:56:01.926Z,2.53
2017-11-17T12:57:04.449Z,2.10
2017-11-17T12:58:08.211Z,1.80
2017-11-17T12:59:10.724Z,2.50
2017-11-17T13:00:13.255Z,2.42
2017-11-17T13:01:16.539Z,2.12
2017-11-17T13:02:19.805Z,2.47
2017-11-17T13:03:22.412Z,2.20
2017-11-17T13:04:25.126Z,3.70
2017-11-17T13:05:27.620Z,1.90
2017-11-17T13:06:31.092Z,2.80
2017-11-17T13:07:33.655Z,1.40
2017-11-17T13:08:36.174Z,2.00
2017-11-17T13:09:38.666Z,1.85
2017-11-17T13:10:41.188Z,2.53
2017-11-17T13:11:43.802Z,2.20
2017-11-17T13:12:46.479Z,1.90
2017-11-17T13:13:48.984Z,2.10
2017-11-17T13:14:52.460Z,2.42
2017-11-17T13:15:54.953Z,2.37
2017-11-17T13:16:57.447Z,1.98
2017-11-17T13:17:59.955Z,2.33
2017-11-17T13:19:03.407Z,2.70
2017-11-17T13:20:05.913Z,3.17
2017-11-17T13:21:10.327Z,1.70
2017-11-17T13:22:13.628Z,1.90
2017-11-17T13:23:16.138Z,2.05
2017-11-17T13:24:18.640Z,1.70
2017-11-17T13:25:21.882Z,1.65
2017-11-17T13:26:24.632Z,2.10
2017-11-17T13:27:27.142Z,2.20
2017-11-17T13:28:29.800Z,2.75
2017-11-17T13:29:32.321Z,2.30
2017-11-17T13:30:34.920Z,2.05
2017-11-17T13:31:37.432Z,1.83
2017-11-17T13:32:40.901Z,1.70
2017-11-17T13:33:43.616Z,1.92
2017-11-17T13:34:47.385Z,2.20
2017-11-17T13:35:50.635Z,1.77
2017-11-17T13:36:53.138Z,2.50
2017-11-17T13:37:56.399Z,1.90
2017-11-17T13:38:59.701Z,2.00
2017-11-17T13:40:03.009Z,1.80
2017-11-17T13:41:05.736Z,1.52
2017-11-17T13:42:08.217Z,1.80